Pagina principale
METAR-TAF:

METAR-TAF

Aeroporti :

Aeroporto di Kasane

Kasane, Botswana

latitudine: 17-49S, longitudine: 025-09E, altezza: 968 m

Osservazione

Il bollettino è stato emesso 44 minuti fa, alle 17:00 UTC
Vento 6 kt da sud/sud-est
Temperature 23°C
Umidità 31%
Pressione 1024 hPa
Visibilità 10 km o più
nessuna nube inferiore a 1500 m e nessun cumulonembo

METAR: FBKE 311700Z 15006KT CAVOK 23/05 Q1024

Ora: 19:44 (17:44 UTC)

Previsione

Il bollettino è stato emesso 5 ore e 44 minuti fa, alle 12:00 UTC
Previsione valida dal 31 alle 15 UTC al 31 alle 24 UTC
Vento 10 kt da est/sud-est
Visibilità 10 km o più
nessuna nube inferiore a 1500 m e nessun cumulonembo

TAF: FBKE 311200Z 3115/3124 11010KT CAVOK

Osservazioni e previsioni meteorologiche di più di 4000 aeroporti (messaggi METAR e TAF).

Le stazioni disponibili sono rappresentate dai dischi gialli e rossi sulla carta.

Puntare il mouse per vedere il nome della stazione.

Clicca sopra per visualizzare le osservazioni e previsioni meteorologiche.

Per cambiare la mappa : fare clic sui pulsanti verdi con una croce nera per ingrandire, il pulsante verde con un trattino per diminuire, o sulla freccia verde per le mappe adiacenti.


METAR-TAF: